sensor_id;sensor_type;location;lat;lon;timestamp;P1;durP1;ratioP1;P2;durP2;ratioP2
47804;SDS011;33568;45.286;9.900;2022-08-03T00:01:02;5.70;;;2.30;;
47804;SDS011;33568;45.286;9.900;2022-08-03T00:03:30;4.40;;;2.10;;
47804;SDS011;33568;45.286;9.900;2022-08-03T00:05:56;7.72;;;3.10;;
47804;SDS011;33568;45.286;9.900;2022-08-03T00:08:23;5.93;;;2.35;;
47804;SDS011;33568;45.286;9.900;2022-08-03T00:10:49;3.97;;;2.35;;
47804;SDS011;33568;45.286;9.900;2022-08-03T00:13:15;4.95;;;2.60;;
47804;SDS011;33568;45.286;9.900;2022-08-03T00:15:44;7.47;;;2.40;;
47804;SDS011;33568;45.286;9.900;2022-08-03T00:18:10;5.72;;;2.55;;
47804;SDS011;33568;45.286;9.900;2022-08-03T00:20:36;3.05;;;2.28;;
47804;SDS011;33568;45.286;9.900;2022-08-03T00:23:04;4.40;;;2.40;;
47804;SDS011;33568;45.286;9.900;2022-08-03T00:25:32;5.65;;;3.22;;
47804;SDS011;33568;45.286;9.900;2022-08-03T00:27:59;4.40;;;2.20;;
47804;SDS011;33568;45.286;9.900;2022-08-03T00:30:26;4.80;;;3.88;;
47804;SDS011;33568;45.286;9.900;2022-08-03T00:32:53;5.70;;;2.55;;
47804;SDS011;33568;45.286;9.900;2022-08-03T00:35:19;4.47;;;2.38;;
47804;SDS011;33568;45.286;9.900;2022-08-03T00:37:47;5.65;;;2.58;;
47804;SDS011;33568;45.286;9.900;2022-08-03T00:40:14;8.60;;;4.22;;
47804;SDS011;33568;45.286;9.900;2022-08-03T00:45:23;5.75;;;2.80;;
47804;SDS011;33568;45.286;9.900;2022-08-03T00:47:54;6.93;;;2.83;;
47804;SDS011;33568;45.286;9.900;2022-08-03T00:50:22;5.55;;;2.53;;
47804;SDS011;33568;45.286;9.900;2022-08-03T00:52:51;2.83;;;2.60;;
47804;SDS011;33568;45.286;9.900;2022-08-03T00:55:20;4.13;;;3.05;;
47804;SDS011;33568;45.286;9.900;2022-08-03T00:57:47;5.35;;;4.47;;
47804;SDS011;33568;45.286;9.900;2022-08-03T01:00:15;10.93;;;4.45;;
47804;SDS011;33568;45.286;9.900;2022-08-03T01:02:43;7.07;;;3.50;;
47804;SDS011;33568;45.286;9.900;2022-08-03T01:05:10;8.18;;;4.50;;
47804;SDS011;33568;45.286;9.900;2022-08-03T01:10:22;10.85;;;3.45;;
47804;SDS011;33568;45.286;9.900;2022-08-03T01:12:58;8.27;;;3.45;;
47804;SDS011;33568;45.286;9.900;2022-08-03T01:15:45;4.32;;;2.20;;
47804;SDS011;33568;45.286;9.900;2022-08-03T01:18:37;3.63;;;2.33;;
47804;SDS011;33568;45.286;9.900;2022-08-03T01:21:11;4.32;;;2.53;;
47804;SDS011;33568;45.286;9.900;2022-08-03T01:23:48;3.55;;;2.58;;
47804;SDS011;33568;45.286;9.900;2022-08-03T01:35:31;5.78;;;2.50;;
47804;SDS011;33568;45.286;9.900;2022-08-03T01:38:02;3.60;;;2.35;;
47804;SDS011;33568;45.286;9.900;2022-08-03T01:40:32;3.35;;;2.33;;
47804;SDS011;33568;45.286;9.900;2022-08-03T01:43:01;3.20;;;2.50;;
47804;SDS011;33568;45.286;9.900;2022-08-03T01:45:29;5.35;;;2.60;;
47804;SDS011;33568;45.286;9.900;2022-08-03T01:47:57;5.60;;;2.60;;
47804;SDS011;33568;45.286;9.900;2022-08-03T01:50:26;4.05;;;2.55;;
47804;SDS011;33568;45.286;9.900;2022-08-03T01:52:55;5.40;;;2.70;;
47804;SDS011;33568;45.286;9.900;2022-08-03T01:55:24;5.20;;;2.70;;
47804;SDS011;33568;45.286;9.900;2022-08-03T01:57:55;7.57;;;4.25;;
47804;SDS011;33568;45.286;9.900;2022-08-03T02:00:23;6.18;;;2.97;;
47804;SDS011;33568;45.286;9.900;2022-08-03T02:02:50;6.60;;;3.22;;
47804;SDS011;33568;45.286;9.900;2022-08-03T02:05:19;5.55;;;3.13;;
47804;SDS011;33568;45.286;9.900;2022-08-03T02:07:46;6.32;;;2.30;;
47804;SDS011;33568;45.286;9.900;2022-08-03T02:10:14;3.88;;;2.33;;
47804;SDS011;33568;45.286;9.900;2022-08-03T02:12:44;3.75;;;2.22;;
47804;SDS011;33568;45.286;9.900;2022-08-03T02:15:12;4.35;;;2.83;;
47804;SDS011;33568;45.286;9.900;2022-08-03T02:17:40;4.43;;;2.80;;
47804;SDS011;33568;45.286;9.900;2022-08-03T02:20:09;5.32;;;2.80;;
47804;SDS011;33568;45.286;9.900;2022-08-03T02:22:40;7.43;;;2.47;;
47804;SDS011;33568;45.286;9.900;2022-08-03T02:25:09;5.63;;;2.80;;
47804;SDS011;33568;45.286;9.900;2022-08-03T02:27:38;4.03;;;2.67;;
47804;SDS011;33568;45.286;9.900;2022-08-03T02:30:11;4.80;;;2.45;;
47804;SDS011;33568;45.286;9.900;2022-08-03T02:32:39;6.63;;;2.42;;
47804;SDS011;33568;45.286;9.900;2022-08-03T02:35:10;6.22;;;2.72;;
47804;SDS011;33568;45.286;9.900;2022-08-03T02:37:42;5.78;;;2.90;;
47804;SDS011;33568;45.286;9.900;2022-08-03T02:40:13;6.43;;;2.30;;
47804;SDS011;33568;45.286;9.900;2022-08-03T02:42:41;3.30;;;2.40;;
47804;SDS011;33568;45.286;9.900;2022-08-03T02:45:10;3.65;;;2.50;;
47804;SDS011;33568;45.286;9.900;2022-08-03T02:47:39;5.30;;;2.80;;
47804;SDS011;33568;45.286;9.900;2022-08-03T02:50:11;3.05;;;2.40;;
47804;SDS011;33568;45.286;9.900;2022-08-03T02:52:40;5.75;;;2.47;;
47804;SDS011;33568;45.286;9.900;2022-08-03T02:55:09;6.68;;;2.80;;
47804;SDS011;33568;45.286;9.900;2022-08-03T02:57:37;4.25;;;2.53;;
47804;SDS011;33568;45.286;9.900;2022-08-03T03:00:04;4.70;;;2.90;;
47804;SDS011;33568;45.286;9.900;2022-08-03T03:02:34;5.30;;;3.17;;
47804;SDS011;33568;45.286;9.900;2022-08-03T03:05:02;7.82;;;2.90;;
47804;SDS011;33568;45.286;9.900;2022-08-03T03:07:30;4.07;;;2.72;;
47804;SDS011;33568;45.286;9.900;2022-08-03T03:09:58;4.82;;;3.10;;
47804;SDS011;33568;45.286;9.900;2022-08-03T03:12:26;3.22;;;2.72;;
47804;SDS011;33568;45.286;9.900;2022-08-03T03:14:53;3.83;;;2.70;;
47804;SDS011;33568;45.286;9.900;2022-08-03T03:17:20;5.20;;;2.67;;
47804;SDS011;33568;45.286;9.900;2022-08-03T03:19:47;4.03;;;2.90;;
47804;SDS011;33568;45.286;9.900;2022-08-03T03:22:15;5.10;;;2.50;;
47804;SDS011;33568;45.286;9.900;2022-08-03T03:24:43;3.75;;;2.65;;
47804;SDS011;33568;45.286;9.900;2022-08-03T03:27:10;4.85;;;2.60;;
47804;SDS011;33568;45.286;9.900;2022-08-03T03:29:39;8.10;;;3.40;;
47804;SDS011;33568;45.286;9.900;2022-08-03T03:32:06;5.60;;;2.63;;
47804;SDS011;33568;45.286;9.900;2022-08-03T03:34:33;6.78;;;2.58;;
47804;SDS011;33568;45.286;9.900;2022-08-03T03:37:00;3.75;;;3.13;;
47804;SDS011;33568;45.286;9.900;2022-08-03T03:39:26;3.58;;;2.90;;
47804;SDS011;33568;45.286;9.900;2022-08-03T03:41:53;4.72;;;2.90;;
47804;SDS011;33568;45.286;9.900;2022-08-03T03:44:19;3.17;;;2.53;;
47804;SDS011;33568;45.286;9.900;2022-08-03T03:46:46;4.53;;;3.00;;
47804;SDS011;33568;45.286;9.900;2022-08-03T03:49:12;5.15;;;2.70;;
47804;SDS011;33568;45.286;9.900;2022-08-03T03:51:39;7.63;;;3.13;;
47804;SDS011;33568;45.286;9.900;2022-08-03T03:54:05;6.13;;;2.67;;
47804;SDS011;33568;45.286;9.900;2022-08-03T03:56:32;3.63;;;2.70;;
47804;SDS011;33568;45.286;9.900;2022-08-03T03:58:59;11.27;;;7.00;;
47804;SDS011;33568;45.286;9.900;2022-08-03T04:01:25;11.02;;;8.32;;
47804;SDS011;33568;45.286;9.900;2022-08-03T04:03:52;10.35;;;8.50;;
47804;SDS011;33568;45.286;9.900;2022-08-03T04:06:18;9.68;;;8.60;;
47804;SDS011;33568;45.286;9.900;2022-08-03T04:09:04;9.88;;;8.73;;
47804;SDS011;33568;45.286;9.900;2022-08-03T04:14:27;12.38;;;9.25;;
47804;SDS011;33568;45.286;9.900;2022-08-03T04:17:00;11.13;;;9.18;;
47804;SDS011;33568;45.286;9.900;2022-08-03T04:19:36;10.43;;;9.40;;
47804;SDS011;33568;45.286;9.900;2022-08-03T04:22:10;13.13;;;9.38;;
47804;SDS011;33568;45.286;9.900;2022-08-03T04:25:22;15.43;;;10.70;;
47804;SDS011;33568;45.286;9.900;2022-08-03T04:27:32;12.57;;;9.73;;
47804;SDS011;33568;45.286;9.900;2022-08-03T04:30:02;12.80;;;9.65;;
47804;SDS011;33568;45.286;9.900;2022-08-03T04:32:30;20.08;;;10.25;;
47804;SDS011;33568;45.286;9.900;2022-08-03T04:34:58;10.00;;;9.02;;
47804;SDS011;33568;45.286;9.900;2022-08-03T04:37:59;13.02;;;9.25;;
47804;SDS011;33568;45.286;9.900;2022-08-03T04:40:21;12.38;;;9.90;;
47804;SDS011;33568;45.286;9.900;2022-08-03T04:42:56;14.23;;;9.52;;
47804;SDS011;33568;45.286;9.900;2022-08-03T04:45:27;16.17;;;9.95;;
47804;SDS011;33568;45.286;9.900;2022-08-03T04:47:56;17.17;;;10.07;;
47804;SDS011;33568;45.286;9.900;2022-08-03T04:50:24;22.48;;;10.43;;
47804;SDS011;33568;45.286;9.900;2022-08-03T04:53:04;23.17;;;10.20;;
47804;SDS011;33568;45.286;9.900;2022-08-03T04:55:31;12.70;;;10.02;;
47804;SDS011;33568;45.286;9.900;2022-08-03T04:58:00;17.10;;;9.35;;
47804;SDS011;33568;45.286;9.900;2022-08-03T05:00:27;10.73;;;8.18;;
47804;SDS011;33568;45.286;9.900;2022-08-03T05:02:56;10.43;;;7.00;;
47804;SDS011;33568;45.286;9.900;2022-08-03T05:05:23;10.65;;;8.88;;
47804;SDS011;33568;45.286;9.900;2022-08-03T05:07:50;14.15;;;6.60;;
47804;SDS011;33568;45.286;9.900;2022-08-03T05:10:16;12.27;;;5.18;;
47804;SDS011;33568;45.286;9.900;2022-08-03T05:12:44;6.30;;;4.85;;
47804;SDS011;33568;45.286;9.900;2022-08-03T05:15:12;7.15;;;4.30;;
47804;SDS011;33568;45.286;9.900;2022-08-03T05:17:41;7.20;;;4.57;;
47804;SDS011;33568;45.286;9.900;2022-08-03T05:20:07;5.97;;;3.88;;
47804;SDS011;33568;45.286;9.900;2022-08-03T05:22:34;8.27;;;4.22;;
47804;SDS011;33568;45.286;9.900;2022-08-03T05:25:01;6.90;;;4.63;;
47804;SDS011;33568;45.286;9.900;2022-08-03T05:27:28;8.23;;;4.20;;
47804;SDS011;33568;45.286;9.900;2022-08-03T05:29:56;5.97;;;3.58;;
47804;SDS011;33568;45.286;9.900;2022-08-03T05:32:23;5.47;;;3.55;;
47804;SDS011;33568;45.286;9.900;2022-08-03T05:34:50;6.93;;;3.53;;
47804;SDS011;33568;45.286;9.900;2022-08-03T05:37:17;4.30;;;3.30;;
47804;SDS011;33568;45.286;9.900;2022-08-03T05:39:44;6.53;;;3.53;;
47804;SDS011;33568;45.286;9.900;2022-08-03T05:42:13;7.13;;;3.47;;
47804;SDS011;33568;45.286;9.900;2022-08-03T05:44:41;8.35;;;3.33;;
47804;SDS011;33568;45.286;9.900;2022-08-03T05:47:07;6.22;;;3.60;;
47804;SDS011;33568;45.286;9.900;2022-08-03T05:49:35;6.03;;;3.33;;
47804;SDS011;33568;45.286;9.900;2022-08-03T05:52:02;7.28;;;3.35;;
47804;SDS011;33568;45.286;9.900;2022-08-03T05:54:29;4.38;;;3.80;;
47804;SDS011;33568;45.286;9.900;2022-08-03T05:56:56;9.93;;;3.22;;
47804;SDS011;33568;45.286;9.900;2022-08-03T05:59:26;7.22;;;3.08;;
47804;SDS011;33568;45.286;9.900;2022-08-03T06:01:53;5.85;;;3.30;;
47804;SDS011;33568;45.286;9.900;2022-08-03T06:04:19;8.18;;;3.72;;
47804;SDS011;33568;45.286;9.900;2022-08-03T06:06:46;13.07;;;4.05;;
47804;SDS011;33568;45.286;9.900;2022-08-03T06:09:12;5.82;;;4.85;;
47804;SDS011;33568;45.286;9.900;2022-08-03T06:11:41;7.57;;;5.43;;
47804;SDS011;33568;45.286;9.900;2022-08-03T06:14:08;14.07;;;7.70;;
47804;SDS011;33568;45.286;9.900;2022-08-03T06:16:34;4.82;;;3.53;;
47804;SDS011;33568;45.286;9.900;2022-08-03T06:19:01;5.22;;;4.10;;
47804;SDS011;33568;45.286;9.900;2022-08-03T06:21:27;9.23;;;4.35;;
47804;SDS011;33568;45.286;9.900;2022-08-03T06:23:53;5.38;;;3.40;;
47804;SDS011;33568;45.286;9.900;2022-08-03T06:26:20;7.10;;;4.43;;
47804;SDS011;33568;45.286;9.900;2022-08-03T06:28:47;10.82;;;5.90;;
47804;SDS011;33568;45.286;9.900;2022-08-03T06:31:16;5.70;;;4.30;;
47804;SDS011;33568;45.286;9.900;2022-08-03T06:33:42;8.32;;;4.88;;
47804;SDS011;33568;45.286;9.900;2022-08-03T06:36:08;10.75;;;5.88;;
47804;SDS011;33568;45.286;9.900;2022-08-03T06:38:35;7.80;;;3.20;;
47804;SDS011;33568;45.286;9.900;2022-08-03T06:41:01;9.10;;;5.13;;
47804;SDS011;33568;45.286;9.900;2022-08-03T06:43:28;12.43;;;6.47;;
47804;SDS011;33568;45.286;9.900;2022-08-03T06:45:54;6.38;;;5.57;;
47804;SDS011;33568;45.286;9.900;2022-08-03T06:48:20;14.77;;;7.70;;
47804;SDS011;33568;45.286;9.900;2022-08-03T06:50:47;5.38;;;3.05;;
47804;SDS011;33568;45.286;9.900;2022-08-03T06:53:13;16.00;;;7.00;;
47804;SDS011;33568;45.286;9.900;2022-08-03T06:55:41;6.45;;;3.92;;
47804;SDS011;33568;45.286;9.900;2022-08-03T06:58:07;5.22;;;2.70;;
47804;SDS011;33568;45.286;9.900;2022-08-03T07:00:35;5.53;;;3.85;;
47804;SDS011;33568;45.286;9.900;2022-08-03T07:03:02;17.13;;;6.50;;
47804;SDS011;33568;45.286;9.900;2022-08-03T07:05:28;14.15;;;5.72;;
47804;SDS011;33568;45.286;9.900;2022-08-03T07:07:55;14.63;;;6.05;;
47804;SDS011;33568;45.286;9.900;2022-08-03T07:10:23;11.32;;;5.70;;
47804;SDS011;33568;45.286;9.900;2022-08-03T07:12:50;12.30;;;5.25;;
47804;SDS011;33568;45.286;9.900;2022-08-03T07:15:16;10.60;;;6.05;;
47804;SDS011;33568;45.286;9.900;2022-08-03T07:17:43;16.50;;;6.47;;
47804;SDS011;33568;45.286;9.900;2022-08-03T07:20:09;4.20;;;3.80;;
47804;SDS011;33568;45.286;9.900;2022-08-03T07:22:36;5.88;;;4.45;;
47804;SDS011;33568;45.286;9.900;2022-08-03T07:25:02;32.22;;;5.65;;
47804;SDS011;33568;45.286;9.900;2022-08-03T07:27:29;36.15;;;4.70;;
47804;SDS011;33568;45.286;9.900;2022-08-03T07:29:57;4.93;;;3.50;;
47804;SDS011;33568;45.286;9.900;2022-08-03T07:32:23;6.05;;;4.07;;
47804;SDS011;33568;45.286;9.900;2022-08-03T07:34:50;9.07;;;4.40;;
47804;SDS011;33568;45.286;9.900;2022-08-03T07:37:16;42.47;;;6.57;;
47804;SDS011;33568;45.286;9.900;2022-08-03T07:39:43;5.22;;;3.05;;
47804;SDS011;33568;45.286;9.900;2022-08-03T07:42:09;12.48;;;2.50;;
47804;SDS011;33568;45.286;9.900;2022-08-03T07:44:35;16.88;;;3.33;;
47804;SDS011;33568;45.286;9.900;2022-08-03T07:47:04;31.73;;;3.60;;
47804;SDS011;33568;45.286;9.900;2022-08-03T07:49:30;8.15;;;2.58;;
47804;SDS011;33568;45.286;9.900;2022-08-03T07:51:57;16.90;;;3.05;;
47804;SDS011;33568;45.286;9.900;2022-08-03T07:54:42;25.05;;;3.63;;
47804;SDS011;33568;45.286;9.900;2022-08-03T07:57:09;4.32;;;2.58;;
47804;SDS011;33568;45.286;9.900;2022-08-03T07:59:36;3.65;;;2.90;;
47804;SDS011;33568;45.286;9.900;2022-08-03T08:02:05;5.75;;;2.92;;
47804;SDS011;33568;45.286;9.900;2022-08-03T08:04:31;8.00;;;3.20;;
47804;SDS011;33568;45.286;9.900;2022-08-03T08:06:58;4.90;;;2.88;;
47804;SDS011;33568;45.286;9.900;2022-08-03T08:09:24;2.97;;;2.63;;
47804;SDS011;33568;45.286;9.900;2022-08-03T08:11:51;9.75;;;3.35;;
47804;SDS011;33568;45.286;9.900;2022-08-03T08:14:17;9.18;;;3.25;;
47804;SDS011;33568;45.286;9.900;2022-08-03T08:16:43;6.30;;;3.00;;
47804;SDS011;33568;45.286;9.900;2022-08-03T08:19:10;5.53;;;2.53;;
47804;SDS011;33568;45.286;9.900;2022-08-03T08:21:36;7.63;;;2.97;;
47804;SDS011;33568;45.286;9.900;2022-08-03T08:24:04;6.13;;;2.55;;
47804;SDS011;33568;45.286;9.900;2022-08-03T08:26:30;9.93;;;3.20;;
47804;SDS011;33568;45.286;9.900;2022-08-03T08:28:57;4.88;;;2.70;;
47804;SDS011;33568;45.286;9.900;2022-08-03T08:31:23;5.68;;;2.35;;
47804;SDS011;33568;45.286;9.900;2022-08-03T08:33:49;15.50;;;3.20;;
47804;SDS011;33568;45.286;9.900;2022-08-03T08:36:16;13.05;;;2.72;;
47804;SDS011;33568;45.286;9.900;2022-08-03T08:38:42;7.85;;;2.33;;
47804;SDS011;33568;45.286;9.900;2022-08-03T08:41:09;6.95;;;2.05;;
47804;SDS011;33568;45.286;9.900;2022-08-03T08:43:37;9.73;;;2.10;;
47804;SDS011;33568;45.286;9.900;2022-08-03T08:46:04;7.75;;;2.45;;
47804;SDS011;33568;45.286;9.900;2022-08-03T08:48:32;6.93;;;2.08;;
47804;SDS011;33568;45.286;9.900;2022-08-03T08:51:04;18.58;;;2.40;;
47804;SDS011;33568;45.286;9.900;2022-08-03T08:53:30;4.78;;;2.08;;
47804;SDS011;33568;45.286;9.900;2022-08-03T08:56:01;5.05;;;2.30;;
47804;SDS011;33568;45.286;9.900;2022-08-03T08:58:34;9.85;;;2.22;;
47804;SDS011;33568;45.286;9.900;2022-08-03T09:03:33;6.60;;;1.90;;
47804;SDS011;33568;45.286;9.900;2022-08-03T09:06:00;3.55;;;1.80;;
47804;SDS011;33568;45.286;9.900;2022-08-03T09:08:27;4.50;;;2.05;;
47804;SDS011;33568;45.286;9.900;2022-08-03T09:10:57;9.18;;;2.50;;
47804;SDS011;33568;45.286;9.900;2022-08-03T09:13:24;3.88;;;2.33;;
47804;SDS011;33568;45.286;9.900;2022-08-03T09:18:50;4.97;;;1.80;;
47804;SDS011;33568;45.286;9.900;2022-08-03T09:23:54;7.57;;;1.97;;
47804;SDS011;33568;45.286;9.900;2022-08-03T09:26:25;5.93;;;1.80;;
47804;SDS011;33568;45.286;9.900;2022-08-03T09:28:54;4.05;;;2.10;;
47804;SDS011;33568;45.286;9.900;2022-08-03T09:34:23;4.53;;;2.10;;
47804;SDS011;33568;45.286;9.900;2022-08-03T09:36:53;3.65;;;1.70;;
47804;SDS011;33568;45.286;9.900;2022-08-03T09:39:25;12.93;;;2.20;;
47804;SDS011;33568;45.286;9.900;2022-08-03T09:42:30;3.60;;;1.50;;
47804;SDS011;33568;45.286;9.900;2022-08-03T09:44:50;4.82;;;1.92;;
47804;SDS011;33568;45.286;9.900;2022-08-03T09:47:29;5.72;;;1.70;;
47804;SDS011;33568;45.286;9.900;2022-08-03T09:49:59;3.92;;;1.80;;
47804;SDS011;33568;45.286;9.900;2022-08-03T09:52:38;9.77;;;1.80;;
47804;SDS011;33568;45.286;9.900;2022-08-03T09:55:09;7.65;;;1.67;;
47804;SDS011;33568;45.286;9.900;2022-08-03T09:57:37;5.15;;;1.70;;
47804;SDS011;33568;45.286;9.900;2022-08-03T10:00:06;5.18;;;1.60;;
47804;SDS011;33568;45.286;9.900;2022-08-03T10:02:41;3.55;;;1.75;;
47804;SDS011;33568;45.286;9.900;2022-08-03T10:05:10;1.98;;;1.60;;
47804;SDS011;33568;45.286;9.900;2022-08-03T10:07:45;3.08;;;1.58;;
47804;SDS011;33568;45.286;9.900;2022-08-03T10:10:16;2.75;;;1.67;;
47804;SDS011;33568;45.286;9.900;2022-08-03T10:12:43;3.45;;;1.92;;
47804;SDS011;33568;45.286;9.900;2022-08-03T10:15:12;4.18;;;1.65;;
47804;SDS011;33568;45.286;9.900;2022-08-03T10:17:39;10.25;;;1.95;;
47804;SDS011;33568;45.286;9.900;2022-08-03T10:20:07;5.18;;;1.60;;
47804;SDS011;33568;45.286;9.900;2022-08-03T10:22:35;6.45;;;1.90;;
47804;SDS011;33568;45.286;9.900;2022-08-03T10:25:08;3.17;;;1.67;;
47804;SDS011;33568;45.286;9.900;2022-08-03T10:27:39;3.08;;;1.60;;
47804;SDS011;33568;45.286;9.900;2022-08-03T10:30:08;4.35;;;1.48;;
47804;SDS011;33568;45.286;9.900;2022-08-03T10:32:43;5.45;;;1.65;;
47804;SDS011;33568;45.286;9.900;2022-08-03T10:35:15;5.85;;;1.63;;
47804;SDS011;33568;45.286;9.900;2022-08-03T10:37:51;2.17;;;1.50;;
47804;SDS011;33568;45.286;9.900;2022-08-03T10:40:33;6.85;;;1.40;;
47804;SDS011;33568;45.286;9.900;2022-08-03T10:43:02;5.47;;;1.42;;
47804;SDS011;33568;45.286;9.900;2022-08-03T10:45:43;4.22;;;1.70;;
47804;SDS011;33568;45.286;9.900;2022-08-03T10:48:11;3.90;;;1.30;;
47804;SDS011;33568;45.286;9.900;2022-08-03T10:50:38;1.52;;;1.38;;
47804;SDS011;33568;45.286;9.900;2022-08-03T10:53:08;5.07;;;1.70;;
47804;SDS011;33568;45.286;9.900;2022-08-03T10:55:35;3.20;;;1.40;;
47804;SDS011;33568;45.286;9.900;2022-08-03T11:01:06;4.20;;;1.52;;
47804;SDS011;33568;45.286;9.900;2022-08-03T11:04:13;21.58;;;1.60;;
47804;SDS011;33568;45.286;9.900;2022-08-03T11:06:21;6.00;;;1.27;;
47804;SDS011;33568;45.286;9.900;2022-08-03T11:11:42;3.38;;;1.30;;
47804;SDS011;33568;45.286;9.900;2022-08-03T11:14:17;2.38;;;1.80;;
47804;SDS011;33568;45.286;9.900;2022-08-03T11:16:46;1.67;;;1.40;;
47804;SDS011;33568;45.286;9.900;2022-08-03T11:19:15;2.53;;;1.40;;
47804;SDS011;33568;45.286;9.900;2022-08-03T11:27:23;4.80;;;1.40;;
47804;SDS011;33568;45.286;9.900;2022-08-03T11:30:05;1.90;;;1.30;;
47804;SDS011;33568;45.286;9.900;2022-08-03T11:40:32;1.95;;;1.17;;
47804;SDS011;33568;45.286;9.900;2022-08-03T11:43:06;2.22;;;1.25;;
47804;SDS011;33568;45.286;9.900;2022-08-03T11:45:33;3.00;;;1.55;;
47804;SDS011;33568;45.286;9.900;2022-08-03T11:48:15;2.08;;;1.35;;
47804;SDS011;33568;45.286;9.900;2022-08-03T11:50:42;6.55;;;1.55;;
47804;SDS011;33568;45.286;9.900;2022-08-03T11:53:15;2.95;;;1.30;;
47804;SDS011;33568;45.286;9.900;2022-08-03T11:55:43;2.72;;;1.45;;
47804;SDS011;33568;45.286;9.900;2022-08-03T11:58:15;2.85;;;1.27;;
47804;SDS011;33568;45.286;9.900;2022-08-03T12:00:49;5.60;;;1.63;;
47804;SDS011;33568;45.286;9.900;2022-08-03T12:03:17;3.05;;;1.20;;
47804;SDS011;33568;45.286;9.900;2022-08-03T12:05:46;1.88;;;1.30;;
47804;SDS011;33568;45.286;9.900;2022-08-03T12:08:16;1.63;;;1.10;;
47804;SDS011;33568;45.286;9.900;2022-08-03T12:10:54;1.67;;;1.40;;
47804;SDS011;33568;45.286;9.900;2022-08-03T12:13:22;1.60;;;1.20;;
47804;SDS011;33568;45.286;9.900;2022-08-03T12:15:56;2.15;;;1.20;;
47804;SDS011;33568;45.286;9.900;2022-08-03T12:18:24;5.88;;;1.30;;
47804;SDS011;33568;45.286;9.900;2022-08-03T12:20:50;3.03;;;1.30;;
47804;SDS011;33568;45.286;9.900;2022-08-03T12:23:18;1.80;;;1.40;;
47804;SDS011;33568;45.286;9.900;2022-08-03T12:25:45;2.67;;;1.35;;
47804;SDS011;33568;45.286;9.900;2022-08-03T12:28:16;4.68;;;1.20;;
47804;SDS011;33568;45.286;9.900;2022-08-03T12:30:49;2.20;;;1.30;;
47804;SDS011;33568;45.286;9.900;2022-08-03T12:33:20;8.05;;;1.33;;
47804;SDS011;33568;45.286;9.900;2022-08-03T12:38:31;1.50;;;1.40;;
47804;SDS011;33568;45.286;9.900;2022-08-03T12:41:00;12.63;;;1.52;;
47804;SDS011;33568;45.286;9.900;2022-08-03T12:43:28;5.10;;;1.30;;
47804;SDS011;33568;45.286;9.900;2022-08-03T12:46:07;3.08;;;1.27;;
47804;SDS011;33568;45.286;9.900;2022-08-03T12:48:56;4.38;;;1.33;;
47804;SDS011;33568;45.286;9.900;2022-08-03T12:53:54;4.68;;;1.75;;
47804;SDS011;33568;45.286;9.900;2022-08-03T12:56:22;2.63;;;1.20;;
47804;SDS011;33568;45.286;9.900;2022-08-03T12:58:49;1.77;;;1.20;;
47804;SDS011;33568;45.286;9.900;2022-08-03T13:01:16;2.40;;;1.30;;
47804;SDS011;33568;45.286;9.900;2022-08-03T13:03:44;1.90;;;0.95;;
47804;SDS011;33568;45.286;9.900;2022-08-03T13:06:13;1.10;;;1.00;;
47804;SDS011;33568;45.286;9.900;2022-08-03T13:08:42;0.88;;;0.88;;
47804;SDS011;33568;45.286;9.900;2022-08-03T13:13:51;1.52;;;1.30;;
47804;SDS011;33568;45.286;9.900;2022-08-03T13:16:19;1.00;;;0.90;;
47804;SDS011;33568;45.286;9.900;2022-08-03T13:18:47;2.88;;;1.40;;
47804;SDS011;33568;45.286;9.900;2022-08-03T13:21:14;2.33;;;1.10;;
47804;SDS011;33568;45.286;9.900;2022-08-03T13:23:41;39.80;;;2.63;;
47804;SDS011;33568;45.286;9.900;2022-08-03T13:26:09;8.57;;;1.40;;
47804;SDS011;33568;45.286;9.900;2022-08-03T13:28:35;21.20;;;2.13;;
47804;SDS011;33568;45.286;9.900;2022-08-03T13:31:02;3.05;;;1.20;;
47804;SDS011;33568;45.286;9.900;2022-08-03T13:33:29;15.35;;;1.88;;
47804;SDS011;33568;45.286;9.900;2022-08-03T13:35:55;2.80;;;1.17;;
47804;SDS011;33568;45.286;9.900;2022-08-03T13:38:22;5.10;;;1.08;;
47804;SDS011;33568;45.286;9.900;2022-08-03T13:40:52;5.90;;;1.20;;
47804;SDS011;33568;45.286;9.900;2022-08-03T13:43:21;3.05;;;1.20;;
47804;SDS011;33568;45.286;9.900;2022-08-03T13:45:47;2.17;;;1.10;;
47804;SDS011;33568;45.286;9.900;2022-08-03T13:48:14;1.08;;;1.00;;
47804;SDS011;33568;45.286;9.900;2022-08-03T13:50:40;3.58;;;1.10;;
47804;SDS011;33568;45.286;9.900;2022-08-03T13:53:07;1.77;;;1.00;;
47804;SDS011;33568;45.286;9.900;2022-08-03T13:55:34;3.10;;;1.20;;
47804;SDS011;33568;45.286;9.900;2022-08-03T13:58:00;2.20;;;1.20;;
47804;SDS011;33568;45.286;9.900;2022-08-03T14:00:27;4.45;;;1.00;;
47804;SDS011;33568;45.286;9.900;2022-08-03T14:02:53;1.20;;;1.10;;
47804;SDS011;33568;45.286;9.900;2022-08-03T14:05:20;3.83;;;1.23;;
47804;SDS011;33568;45.286;9.900;2022-08-03T14:07:47;3.78;;;1.25;;
47804;SDS011;33568;45.286;9.900;2022-08-03T14:10:14;2.17;;;0.90;;
47804;SDS011;33568;45.286;9.900;2022-08-03T14:12:40;1.00;;;1.00;;
47804;SDS011;33568;45.286;9.900;2022-08-03T14:15:06;3.53;;;1.10;;
47804;SDS011;33568;45.286;9.900;2022-08-03T14:17:34;5.80;;;1.10;;
47804;SDS011;33568;45.286;9.900;2022-08-03T14:20:01;3.95;;;1.13;;
47804;SDS011;33568;45.286;9.900;2022-08-03T14:22:29;2.58;;;1.10;;
47804;SDS011;33568;45.286;9.900;2022-08-03T14:24:56;2.42;;;1.20;;
47804;SDS011;33568;45.286;9.900;2022-08-03T14:27:23;5.82;;;1.10;;
47804;SDS011;33568;45.286;9.900;2022-08-03T14:29:49;6.95;;;1.13;;
47804;SDS011;33568;45.286;9.900;2022-08-03T14:32:15;3.78;;;1.20;;
47804;SDS011;33568;45.286;9.900;2022-08-03T14:34:42;1.80;;;1.08;;
47804;SDS011;33568;45.286;9.900;2022-08-03T14:37:08;1.95;;;1.20;;
47804;SDS011;33568;45.286;9.900;2022-08-03T14:39:34;2.42;;;1.35;;
47804;SDS011;33568;45.286;9.900;2022-08-03T14:42:01;2.33;;;1.08;;
47804;SDS011;33568;45.286;9.900;2022-08-03T14:44:28;1.40;;;1.10;;
47804;SDS011;33568;45.286;9.900;2022-08-03T14:46:56;1.70;;;1.10;;
47804;SDS011;33568;45.286;9.900;2022-08-03T14:49:23;1.73;;;1.10;;
47804;SDS011;33568;45.286;9.900;2022-08-03T14:51:50;1.63;;;1.02;;
47804;SDS011;33568;45.286;9.900;2022-08-03T14:54:16;1.20;;;1.02;;
47804;SDS011;33568;45.286;9.900;2022-08-03T14:56:43;1.35;;;1.00;;
47804;SDS011;33568;45.286;9.900;2022-08-03T14:59:10;3.35;;;1.42;;
47804;SDS011;33568;45.286;9.900;2022-08-03T15:01:37;9.57;;;1.00;;
47804;SDS011;33568;45.286;9.900;2022-08-03T15:04:03;2.53;;;1.17;;
47804;SDS011;33568;45.286;9.900;2022-08-03T15:06:29;6.55;;;1.05;;
47804;SDS011;33568;45.286;9.900;2022-08-03T15:08:56;6.70;;;1.40;;
47804;SDS011;33568;45.286;9.900;2022-08-03T15:11:22;2.85;;;1.00;;
47804;SDS011;33568;45.286;9.900;2022-08-03T15:13:48;1.98;;;1.10;;
47804;SDS011;33568;45.286;9.900;2022-08-03T15:16:15;1.38;;;1.15;;
47804;SDS011;33568;45.286;9.900;2022-08-03T15:18:41;1.67;;;1.00;;
47804;SDS011;33568;45.286;9.900;2022-08-03T15:21:07;6.70;;;1.30;;
47804;SDS011;33568;45.286;9.900;2022-08-03T15:23:34;2.75;;;1.00;;
47804;SDS011;33568;45.286;9.900;2022-08-03T15:26:00;1.55;;;1.05;;
47804;SDS011;33568;45.286;9.900;2022-08-03T15:28:26;4.57;;;1.08;;
47804;SDS011;33568;45.286;9.900;2022-08-03T15:30:53;1.75;;;1.10;;
47804;SDS011;33568;45.286;9.900;2022-08-03T15:33:19;4.30;;;1.27;;
47804;SDS011;33568;45.286;9.900;2022-08-03T15:35:45;4.55;;;1.30;;
47804;SDS011;33568;45.286;9.900;2022-08-03T15:38:12;2.03;;;1.38;;
47804;SDS011;33568;45.286;9.900;2022-08-03T15:40:38;6.07;;;1.10;;
47804;SDS011;33568;45.286;9.900;2022-08-03T15:43:05;2.08;;;1.15;;
47804;SDS011;33568;45.286;9.900;2022-08-03T15:45:31;2.65;;;1.60;;
47804;SDS011;33568;45.286;9.900;2022-08-03T15:47:57;3.70;;;1.30;;
47804;SDS011;33568;45.286;9.900;2022-08-03T15:50:24;2.55;;;1.10;;